createdAt,value
2022-10-23T00:00:12.020Z,0.00
2022-10-23T00:01:11.956Z,0.00
2022-10-23T00:02:11.998Z,0.00
2022-10-23T00:03:11.937Z,0.00
2022-10-23T00:04:11.926Z,0.00
2022-10-23T00:05:11.921Z,0.00
2022-10-23T00:06:11.921Z,0.00
2022-10-23T00:07:11.918Z,0.00
2022-10-23T00:08:11.918Z,0.00
2022-10-23T00:09:11.878Z,0.00
2022-10-23T00:10:11.869Z,0.00
2022-10-23T00:11:11.866Z,0.00
2022-10-23T00:12:11.859Z,0.00
2022-10-23T00:13:11.841Z,0.00
2022-10-23T00:14:11.841Z,0.00
2022-10-23T00:15:11.835Z,0.00
2022-10-23T00:16:11.819Z,0.00
2022-10-23T00:17:11.824Z,0.00
2022-10-23T00:18:11.792Z,0.00
2022-10-23T00:19:11.810Z,0.00
2022-10-23T00:20:11.778Z,0.00
2022-10-23T00:21:11.769Z,0.00
2022-10-23T00:22:11.778Z,0.00
2022-10-23T00:23:11.743Z,0.00
2022-10-23T00:24:11.743Z,0.00
2022-10-23T00:25:11.723Z,0.00
2022-10-23T00:26:11.719Z,0.00
2022-10-23T00:27:11.706Z,0.00
2022-10-23T00:28:11.712Z,0.00
2022-10-23T00:29:11.719Z,0.00
2022-10-23T00:30:11.669Z,0.00
2022-10-23T00:31:11.669Z,0.00
2022-10-23T00:32:11.649Z,0.00
2022-10-23T00:33:11.646Z,0.00
2022-10-23T00:34:11.647Z,0.00
2022-10-23T00:35:11.628Z,0.00
2022-10-23T00:36:11.627Z,0.00
2022-10-23T00:37:11.599Z,0.00
2022-10-23T00:38:11.594Z,0.00
2022-10-23T00:39:11.604Z,0.00
2022-10-23T00:40:11.576Z,0.00
2022-10-23T00:41:11.577Z,0.00
2022-10-23T00:42:11.616Z,0.00
2022-10-23T00:43:11.548Z,0.00
2022-10-23T00:44:11.543Z,0.00
2022-10-23T00:45:11.527Z,0.00
2022-10-23T00:46:11.514Z,0.00
2022-10-23T00:47:11.512Z,0.00
2022-10-23T00:48:11.485Z,0.00
2022-10-23T00:50:11.473Z,0.00
2022-10-23T00:51:11.463Z,0.00
2022-10-23T00:52:11.473Z,0.00
2022-10-23T00:53:11.439Z,0.00
2022-10-23T00:54:26.845Z,0.00
2022-10-23T00:55:13.427Z,0.00
2022-10-23T00:56:11.418Z,0.00
2022-10-23T00:57:11.425Z,0.00
2022-10-23T00:58:11.404Z,0.00
2022-10-23T00:59:11.407Z,0.00
2022-10-23T01:00:11.373Z,0.00
2022-10-23T01:01:11.402Z,0.00
2022-10-23T01:02:11.542Z,0.00
2022-10-23T01:03:11.358Z,0.00
2022-10-23T01:04:11.352Z,0.00
2022-10-23T01:05:11.323Z,0.00
2022-10-23T01:06:11.313Z,0.00
2022-10-23T01:07:11.315Z,0.00
2022-10-23T01:08:11.317Z,0.00
2022-10-23T01:09:11.292Z,0.00
2022-10-23T01:10:11.292Z,0.00
2022-10-23T01:11:12.271Z,0.00
2022-10-23T01:12:11.269Z,0.00
2022-10-23T01:13:11.247Z,0.00
2022-10-23T01:14:11.273Z,0.00
2022-10-23T01:15:11.223Z,0.00
2022-10-23T01:16:11.216Z,0.00
2022-10-23T01:17:11.206Z,0.00
2022-10-23T01:18:11.204Z,0.00
2022-10-23T01:19:11.213Z,0.00
2022-10-23T01:20:11.183Z,0.00
2022-10-23T01:21:11.174Z,0.00
2022-10-23T01:22:11.273Z,0.00
2022-10-23T01:23:11.163Z,0.00
2022-10-23T01:24:11.167Z,0.00
2022-10-23T01:25:11.155Z,0.00
2022-10-23T01:26:11.133Z,0.00
2022-10-23T01:27:11.114Z,0.00
2022-10-23T01:28:11.098Z,0.00
2022-10-23T01:29:11.086Z,0.00
2022-10-23T01:30:11.102Z,0.00
2022-10-23T01:31:11.064Z,0.00
2022-10-23T01:32:11.060Z,0.00
2022-10-23T01:33:11.047Z,0.00
2022-10-23T01:34:11.030Z,0.00
2022-10-23T01:35:11.021Z,0.00
2022-10-23T01:36:11.035Z,0.00
2022-10-23T01:37:11.005Z,0.00
2022-10-23T01:38:11.000Z,0.00
2022-10-23T01:39:11.021Z,0.00
2022-10-23T01:40:10.984Z,0.00
2022-10-23T01:41:10.967Z,0.00
2022-10-23T01:42:10.957Z,0.00
2022-10-23T01:43:10.956Z,0.00
2022-10-23T01:44:10.974Z,0.00
2022-10-23T01:45:10.927Z,0.00
2022-10-23T01:46:10.924Z,0.00
2022-10-23T01:47:11.003Z,0.00
2022-10-23T01:48:10.903Z,0.00
2022-10-23T01:49:11.924Z,0.00
2022-10-23T01:50:10.882Z,0.00
2022-10-23T01:51:10.872Z,0.00
2022-10-23T01:52:10.860Z,0.00
2022-10-23T01:53:10.864Z,0.00
2022-10-23T01:54:10.841Z,0.00
2022-10-23T01:55:10.823Z,0.00
2022-10-23T01:56:10.816Z,0.00
2022-10-23T01:57:10.809Z,0.00
2022-10-23T01:58:10.813Z,0.00
2022-10-23T01:59:10.802Z,0.00
2022-10-23T02:00:10.783Z,0.00
2022-10-23T02:01:10.878Z,0.00
2022-10-23T02:02:10.941Z,0.00
2022-10-23T02:03:10.777Z,0.00
2022-10-23T02:04:10.762Z,0.00
2022-10-23T02:05:10.729Z,0.00
2022-10-23T02:06:10.717Z,0.00
2022-10-23T02:07:10.714Z,0.00
2022-10-23T02:08:10.693Z,0.00
2022-10-23T02:09:10.701Z,0.00
2022-10-23T02:10:10.684Z,0.00
2022-10-23T02:11:10.691Z,0.00
2022-10-23T02:12:10.658Z,0.00
2022-10-23T02:13:10.663Z,0.00
2022-10-23T02:14:10.637Z,0.00
2022-10-23T02:15:10.647Z,0.00
2022-10-23T02:16:10.629Z,0.00
2022-10-23T02:17:10.623Z,0.00
2022-10-23T02:18:10.598Z,0.00
2022-10-23T02:19:10.591Z,0.00
2022-10-23T02:20:10.589Z,0.00
2022-10-23T02:21:10.592Z,0.00
2022-10-23T02:22:10.559Z,0.00
2022-10-23T02:23:10.557Z,0.00
2022-10-23T02:24:10.535Z,0.00
2022-10-23T02:25:11.537Z,0.00
2022-10-23T02:26:10.538Z,0.00
2022-10-23T02:27:10.509Z,0.00
2022-10-23T02:28:10.528Z,0.00
2022-10-23T02:29:10.487Z,0.00
2022-10-23T02:30:10.489Z,0.00
2022-10-23T02:31:10.471Z,0.00
2022-10-23T02:32:10.462Z,0.00
2022-10-23T02:33:10.472Z,0.00
2022-10-23T02:34:10.441Z,0.00
2022-10-23T02:35:10.423Z,0.00
2022-10-23T02:36:10.415Z,0.00
2022-10-23T02:37:10.471Z,0.00
2022-10-23T02:38:10.395Z,0.00
2022-10-23T02:39:10.405Z,0.00
2022-10-23T02:40:10.381Z,0.00
2022-10-23T02:41:10.373Z,0.00
2022-10-23T02:42:10.361Z,0.00
2022-10-23T02:43:10.344Z,0.00
2022-10-23T02:44:10.352Z,0.00
2022-10-23T02:45:10.334Z,0.00
2022-10-23T02:46:10.319Z,0.00
2022-10-23T02:47:10.318Z,0.00
2022-10-23T02:48:10.301Z,0.00
2022-10-23T02:49:10.307Z,0.00
2022-10-23T02:50:10.285Z,0.00
2022-10-23T02:51:10.273Z,0.00
2022-10-23T02:52:42.155Z,0.00
2022-10-23T02:53:10.260Z,0.00
2022-10-23T02:54:10.258Z,0.00
2022-10-23T02:55:10.222Z,0.00
2022-10-23T02:56:10.211Z,0.00
2022-10-23T02:57:10.212Z,0.00
2022-10-23T02:58:10.207Z,0.00
2022-10-23T02:59:10.222Z,0.00
2022-10-23T03:00:10.198Z,0.00
2022-10-23T03:01:10.199Z,0.00
2022-10-23T03:02:10.254Z,0.00
2022-10-23T03:03:10.156Z,0.00
2022-10-23T03:04:10.161Z,0.00
2022-10-23T03:05:10.125Z,0.00
2022-10-23T03:06:10.128Z,0.00
2022-10-23T03:07:10.177Z,0.00
2022-10-23T03:08:10.107Z,0.00
2022-10-23T03:09:10.099Z,0.00
2022-10-23T03:10:10.086Z,0.00
2022-10-23T03:11:10.072Z,0.00
2022-10-23T03:12:10.090Z,0.00
2022-10-23T03:13:10.047Z,0.00
2022-10-23T03:14:10.037Z,0.00
2022-10-23T03:15:10.026Z,0.00
2022-10-23T03:16:10.022Z,0.00
2022-10-23T03:17:10.004Z,0.00
2022-10-23T03:18:10.023Z,0.00
2022-10-23T03:19:09.995Z,0.00
2022-10-23T03:20:10.003Z,0.00
2022-10-23T03:21:09.984Z,0.00
2022-10-23T03:22:09.961Z,0.00
2022-10-23T03:23:09.952Z,0.00
2022-10-23T03:24:09.947Z,0.00
2022-10-23T03:25:09.929Z,0.00
2022-10-23T03:26:09.924Z,0.00
2022-10-23T03:27:09.910Z,0.00
2022-10-23T03:28:09.907Z,0.00
2022-10-23T03:29:09.910Z,0.00
2022-10-23T03:30:09.881Z,0.00
2022-10-23T03:31:09.868Z,0.00
2022-10-23T03:32:09.862Z,0.00
2022-10-23T03:33:09.852Z,0.00
2022-10-23T03:34:09.871Z,0.00
2022-10-23T03:35:09.836Z,0.00
2022-10-23T03:36:09.824Z,0.00
2022-10-23T03:37:09.821Z,0.00
2022-10-23T03:38:09.800Z,0.00
2022-10-23T03:39:09.788Z,0.00
2022-10-23T03:40:09.799Z,0.00
2022-10-23T03:41:09.771Z,0.00
2022-10-23T03:42:09.774Z,0.00
2022-10-23T03:43:09.765Z,0.00
2022-10-23T03:44:09.740Z,0.00
2022-10-23T03:45:09.743Z,0.00
2022-10-23T03:46:09.743Z,0.00
2022-10-23T03:47:09.717Z,0.00
2022-10-23T03:48:09.695Z,0.00
2022-10-23T03:49:09.688Z,0.00
2022-10-23T03:50:09.673Z,0.00
2022-10-23T03:51:09.696Z,0.00
2022-10-23T03:52:09.660Z,0.00
2022-10-23T03:53:09.655Z,0.00
2022-10-23T03:54:09.654Z,0.00
2022-10-23T03:55:09.643Z,0.00
2022-10-23T03:56:09.639Z,0.00
2022-10-23T03:57:09.609Z,0.00
2022-10-23T03:58:09.595Z,0.00
2022-10-23T03:59:09.580Z,0.00
2022-10-23T04:00:09.590Z,0.00
2022-10-23T04:01:09.657Z,0.00
2022-10-23T04:02:09.643Z,0.00
2022-10-23T04:03:09.559Z,0.00
2022-10-23T04:04:09.544Z,0.00
2022-10-23T04:05:09.535Z,0.00
2022-10-23T04:06:09.523Z,0.00
2022-10-23T04:07:09.526Z,0.00
2022-10-23T04:08:09.506Z,0.00
2022-10-23T04:09:09.506Z,0.00
2022-10-23T04:10:09.507Z,0.00
2022-10-23T04:11:09.493Z,0.00
2022-10-23T04:12:09.463Z,0.00
2022-10-23T04:13:09.455Z,0.00
2022-10-23T04:14:09.442Z,0.00
2022-10-23T04:15:09.442Z,0.00
2022-10-23T04:16:09.444Z,0.00
2022-10-23T04:17:09.415Z,0.00
2022-10-23T04:18:09.409Z,0.00
2022-10-23T04:19:09.394Z,0.00
2022-10-23T04:20:09.383Z,0.00
2022-10-23T04:21:09.363Z,0.00
2022-10-23T04:22:09.367Z,0.00
2022-10-23T04:23:09.380Z,0.00
2022-10-23T04:24:09.345Z,0.00
2022-10-23T04:25:09.356Z,0.00
2022-10-23T04:26:09.323Z,0.00
2022-10-23T04:27:09.313Z,0.00
2022-10-23T04:28:09.308Z,0.00
2022-10-23T04:29:09.296Z,0.00
2022-10-23T04:30:09.288Z,0.00
2022-10-23T04:31:09.293Z,0.00
2022-10-23T04:32:09.281Z,0.00
2022-10-23T04:33:09.253Z,0.00
2022-10-23T04:34:09.252Z,0.00
2022-10-23T04:35:09.250Z,0.00
2022-10-23T04:36:09.201Z,0.00
2022-10-23T04:37:10.217Z,0.00
2022-10-23T04:38:09.192Z,0.00
2022-10-23T04:39:09.216Z,0.00
2022-10-23T04:40:09.186Z,0.00
2022-10-23T04:41:09.165Z,0.00
2022-10-23T04:42:09.159Z,0.00
2022-10-23T04:43:09.153Z,0.00
2022-10-23T04:44:09.164Z,0.00
2022-10-23T04:45:09.131Z,0.00
2022-10-23T04:46:09.135Z,0.00
2022-10-23T04:47:09.122Z,0.00
2022-10-23T04:48:09.103Z,0.00
2022-10-23T04:49:09.109Z,0.00
2022-10-23T04:50:09.136Z,0.00
2022-10-23T04:51:09.074Z,0.00
2022-10-23T04:52:09.061Z,0.00
2022-10-23T04:53:09.045Z,0.00
2022-10-23T04:54:09.034Z,0.00
2022-10-23T04:55:09.055Z,0.00
2022-10-23T04:56:09.038Z,0.00
2022-10-23T04:57:09.038Z,0.00
2022-10-23T04:58:09.000Z,0.00
2022-10-23T04:59:08.977Z,0.00
2022-10-23T05:00:08.977Z,0.00
2022-10-23T05:01:09.028Z,0.00
2022-10-23T05:02:09.012Z,0.00
2022-10-23T05:03:08.949Z,0.00
2022-10-23T05:04:08.943Z,0.00
2022-10-23T05:05:08.934Z,0.00
2022-10-23T05:06:08.917Z,0.00
2022-10-23T05:07:08.935Z,0.00
2022-10-23T05:08:08.912Z,0.00
2022-10-23T05:09:08.914Z,0.00
2022-10-23T05:10:08.883Z,0.00
2022-10-23T05:11:08.870Z,0.00
2022-10-23T05:12:08.864Z,0.00
2022-10-23T05:13:08.850Z,0.00
2022-10-23T05:14:08.871Z,0.00
2022-10-23T05:15:08.823Z,0.00
2022-10-23T05:16:08.811Z,0.00
2022-10-23T05:17:08.802Z,0.00
2022-10-23T05:18:08.806Z,0.00
2022-10-23T05:19:08.789Z,0.00
2022-10-23T05:20:08.799Z,0.00
2022-10-23T05:21:08.764Z,0.00
2022-10-23T05:22:08.787Z,0.00
2022-10-23T05:23:08.756Z,0.00
2022-10-23T05:24:08.746Z,0.00
2022-10-23T05:25:08.726Z,0.00
2022-10-23T05:26:08.713Z,0.00
2022-10-23T05:27:08.712Z,0.00
2022-10-23T05:28:08.691Z,4.00
2022-10-23T05:29:08.694Z,4.00
2022-10-23T05:30:08.685Z,0.00
2022-10-23T05:31:08.662Z,4.00
2022-10-23T05:32:08.710Z,4.00
2022-10-23T05:33:08.640Z,4.00
2022-10-23T05:34:11.222Z,4.00
2022-10-23T05:35:08.912Z,8.00
2022-10-23T05:36:08.621Z,8.00
2022-10-23T05:37:08.591Z,12.00
2022-10-23T05:38:08.587Z,12.00
2022-10-23T05:39:08.584Z,16.00
2022-10-23T05:40:08.608Z,16.00
2022-10-23T05:41:08.563Z,16.00
2022-10-23T05:42:08.557Z,20.00
2022-10-23T05:43:08.538Z,28.00
2022-10-23T05:44:08.527Z,28.00
2022-10-23T05:45:08.514Z,32.00
2022-10-23T05:46:08.527Z,36.00
2022-10-23T05:47:08.505Z,40.00
2022-10-23T05:48:11.336Z,48.00
2022-10-23T05:49:10.485Z,52.00
2022-10-23T05:50:08.469Z,68.00
2022-10-23T05:51:08.473Z,80.00
2022-10-23T05:52:08.457Z,88.00
2022-10-23T05:53:08.471Z,92.00
2022-10-23T05:54:08.428Z,96.00
2022-10-23T05:55:08.427Z,104.00
2022-10-23T05:56:08.414Z,108.00
2022-10-23T05:57:08.445Z,120.00
2022-10-23T05:58:08.430Z,132.00
2022-10-23T05:59:08.396Z,148.00
2022-10-23T06:00:08.372Z,168.00
2022-10-23T06:01:08.421Z,188.00
2022-10-23T06:02:08.437Z,204.00
2022-10-23T06:03:08.362Z,216.00
2022-10-23T06:04:08.353Z,228.00
2022-10-23T06:05:08.338Z,252.00
2022-10-23T06:06:08.339Z,284.00
2022-10-23T06:07:08.323Z,316.00
2022-10-23T06:08:08.299Z,352.00
2022-10-23T06:09:08.310Z,400.00
2022-10-23T06:10:08.310Z,444.00
2022-10-23T06:11:08.267Z,464.00
2022-10-23T06:12:08.268Z,480.00
2022-10-23T06:13:08.255Z,500.00
2022-10-23T06:14:08.253Z,548.00
2022-10-23T06:15:08.251Z,596.00
2022-10-23T06:16:09.756Z,636.00
2022-10-23T06:17:09.207Z,688.00
2022-10-23T06:18:08.214Z,708.00
2022-10-23T06:19:08.210Z,724.00
2022-10-23T06:20:08.180Z,756.00
2022-10-23T06:21:08.185Z,784.00
2022-10-23T06:22:08.200Z,820.00
2022-10-23T06:23:08.168Z,856.00
2022-10-23T06:24:08.157Z,888.00
2022-10-23T06:25:08.142Z,912.00
2022-10-23T06:26:08.141Z,912.00
2022-10-23T06:27:08.132Z,940.00
2022-10-23T06:28:08.105Z,996.00
2022-10-23T06:29:08.105Z,1056.00
2022-10-23T06:30:08.092Z,1144.00
2022-10-23T06:31:08.067Z,1244.00
2022-10-23T06:32:08.072Z,1360.00
2022-10-23T06:33:08.053Z,1460.00
2022-10-23T06:34:08.042Z,1544.00
2022-10-23T06:35:08.026Z,1620.00
2022-10-23T06:36:08.025Z,1692.00
2022-10-23T06:37:08.026Z,1772.00
2022-10-23T06:38:08.023Z,1840.00
2022-10-23T06:39:08.026Z,1856.00
2022-10-23T06:40:08.006Z,1896.00
2022-10-23T06:41:07.968Z,1932.00
2022-10-23T06:42:07.970Z,1984.00
2022-10-23T06:43:07.954Z,2056.00
2022-10-23T06:44:07.942Z,2112.00
2022-10-23T06:45:07.951Z,2168.00
2022-10-23T06:46:07.918Z,2292.00
2022-10-23T06:47:07.958Z,2336.00
2022-10-23T06:48:07.896Z,2352.00
2022-10-23T06:49:07.897Z,2492.00
2022-10-23T06:50:11.700Z,2592.00
2022-10-23T06:51:09.872Z,2624.00
2022-10-23T06:52:14.387Z,2528.00
2022-10-23T06:53:09.853Z,2544.00
2022-10-23T06:54:07.845Z,2708.00
2022-10-23T06:55:08.861Z,2864.00
2022-10-23T06:56:07.827Z,2824.00
2022-10-23T06:57:07.821Z,2736.00
2022-10-23T06:58:07.810Z,2740.00
2022-10-23T06:59:07.790Z,2884.00
2022-10-23T07:00:07.800Z,3052.00
2022-10-23T07:01:07.935Z,3276.00
2022-10-23T07:02:07.774Z,3560.00
2022-10-23T07:03:07.756Z,3720.00
2022-10-23T07:04:07.746Z,3952.00
2022-10-23T07:05:09.952Z,3932.00
2022-10-23T07:06:08.733Z,3836.00
2022-10-23T07:07:07.706Z,4120.00
2022-10-23T07:08:07.767Z,4392.00
2022-10-23T07:09:07.692Z,4176.00
2022-10-23T07:10:07.724Z,4544.00
2022-10-23T07:11:07.675Z,4728.00
2022-10-23T07:12:07.666Z,4532.00
2022-10-23T07:13:07.662Z,5108.00
2022-10-23T07:14:07.629Z,4832.00
2022-10-23T07:15:07.645Z,5152.00
2022-10-23T07:16:07.611Z,5576.00
2022-10-23T07:17:07.588Z,5844.00
2022-10-23T07:18:07.597Z,3772.00
2022-10-23T07:19:07.607Z,4340.00
2022-10-23T07:20:07.584Z,5824.00
2022-10-23T07:21:07.569Z,5760.00
2022-10-23T07:22:09.702Z,5780.00
2022-10-23T07:23:07.558Z,5412.00
2022-10-23T07:24:07.539Z,4688.00
2022-10-23T07:25:07.534Z,5096.00
2022-10-23T07:26:07.517Z,6836.00
2022-10-23T07:27:07.511Z,5972.00
2022-10-23T07:28:07.531Z,4680.00
2022-10-23T07:29:07.484Z,4040.00
2022-10-23T07:30:07.483Z,4364.00
2022-10-23T07:31:07.473Z,4824.00
2022-10-23T07:32:07.467Z,4568.00
2022-10-23T07:33:07.477Z,4920.00
2022-10-23T07:34:07.451Z,4952.00
2022-10-23T07:35:07.543Z,4552.00
2022-10-23T07:36:07.426Z,4936.00
2022-10-23T07:37:07.425Z,4696.00
2022-10-23T07:38:07.413Z,4636.00
2022-10-23T07:39:07.400Z,4536.00
2022-10-23T07:40:07.404Z,4212.00
2022-10-23T07:41:09.021Z,4188.00
2022-10-23T07:42:07.364Z,4280.00
2022-10-23T07:43:07.359Z,4200.00
2022-10-23T07:44:07.404Z,4248.00
2022-10-23T07:45:07.348Z,4336.00
2022-10-23T07:46:07.332Z,4596.00
2022-10-23T07:47:07.328Z,4508.00
2022-10-23T07:48:07.298Z,6960.00
2022-10-23T07:49:07.294Z,6072.00
2022-10-23T07:50:07.322Z,5356.00
2022-10-23T07:51:07.294Z,6020.00
2022-10-23T07:52:07.279Z,4896.00
2022-10-23T07:53:07.256Z,4768.00
2022-10-23T07:54:07.249Z,4688.00
2022-10-23T07:55:07.251Z,4700.00
2022-10-23T07:56:07.229Z,4652.00
2022-10-23T07:57:07.217Z,4740.00
2022-10-23T07:58:07.214Z,4912.00
2022-10-23T07:59:07.189Z,5012.00
2022-10-23T08:00:07.202Z,5432.00
2022-10-23T08:01:07.271Z,5488.00
2022-10-23T08:02:07.194Z,5372.00
2022-10-23T08:03:07.155Z,5424.00
2022-10-23T08:04:07.165Z,5488.00
2022-10-23T08:05:07.145Z,5276.00
2022-10-23T08:06:07.136Z,5536.00
2022-10-23T08:07:07.109Z,5768.00
2022-10-23T08:08:07.105Z,6016.00
2022-10-23T08:09:07.244Z,6316.00
2022-10-23T08:10:07.091Z,6456.00
2022-10-23T08:11:07.081Z,6112.00
2022-10-23T08:12:07.089Z,5792.00
2022-10-23T08:13:07.061Z,5808.00
2022-10-23T08:14:07.053Z,6504.00
2022-10-23T08:15:07.049Z,7044.00
2022-10-23T08:16:07.027Z,7368.00
2022-10-23T08:17:07.044Z,7316.00
2022-10-23T08:18:07.014Z,9532.00
2022-10-23T08:19:07.009Z,9952.00
2022-10-23T08:20:06.985Z,10280.00
2022-10-23T08:21:06.977Z,11136.00
2022-10-23T08:22:06.987Z,13176.00
2022-10-23T08:23:06.968Z,13928.00
2022-10-23T08:24:06.951Z,12796.00
2022-10-23T08:25:06.934Z,14404.00
2022-10-23T08:26:06.945Z,13680.00
2022-10-23T08:27:06.938Z,13100.00
2022-10-23T08:28:06.910Z,11964.00
2022-10-23T08:29:06.901Z,11556.00
2022-10-23T08:30:06.885Z,10892.00
2022-10-23T08:31:06.871Z,9840.00
2022-10-23T08:32:06.879Z,8000.00
2022-10-23T08:33:06.844Z,7892.00
2022-10-23T08:34:06.874Z,7940.00
2022-10-23T08:35:06.828Z,7960.00
2022-10-23T08:36:06.835Z,7724.00
2022-10-23T08:37:06.847Z,7600.00
2022-10-23T08:38:06.810Z,7440.00
2022-10-23T08:39:06.816Z,7580.00
2022-10-23T08:40:06.788Z,7760.00
2022-10-23T08:41:06.776Z,7808.00
2022-10-23T08:42:06.827Z,8000.00
2022-10-23T08:43:06.755Z,8068.00
2022-10-23T08:44:06.742Z,8156.00
2022-10-23T08:45:06.760Z,8208.00
2022-10-23T08:46:09.243Z,8468.00
2022-10-23T08:47:06.731Z,8700.00
2022-10-23T08:48:06.711Z,8940.00
2022-10-23T08:49:06.699Z,9032.00
2022-10-23T08:50:06.686Z,9308.00
2022-10-23T08:51:06.686Z,10000.00
2022-10-23T08:52:08.109Z,10668.00
2022-10-23T08:53:38.552Z,11140.00
2022-10-23T08:54:06.655Z,11640.00
2022-10-23T08:55:06.659Z,13452.00
2022-10-23T08:56:06.629Z,13112.00
2022-10-23T08:57:06.616Z,11936.00
2022-10-23T08:58:06.644Z,13964.00
2022-10-23T08:59:06.616Z,12824.00
2022-10-23T09:00:06.631Z,15776.00
2022-10-23T09:01:06.677Z,16128.00
2022-10-23T09:02:06.771Z,16512.00
2022-10-23T09:03:06.579Z,15424.00
2022-10-23T09:04:06.587Z,18368.00
2022-10-23T09:05:06.550Z,15856.00
2022-10-23T09:06:06.537Z,15128.00
2022-10-23T09:07:06.612Z,16288.00
2022-10-23T09:08:06.522Z,16032.00
2022-10-23T09:09:06.510Z,17856.00
2022-10-23T09:10:06.506Z,15280.00
2022-10-23T09:11:06.507Z,12736.00
2022-10-23T09:12:06.476Z,10328.00
2022-10-23T09:13:06.465Z,9092.00
2022-10-23T09:14:06.450Z,9792.00
2022-10-23T09:15:06.445Z,11872.00
2022-10-23T09:16:06.462Z,14228.00
2022-10-23T09:17:06.495Z,15300.00
2022-10-23T09:18:06.418Z,14608.00
2022-10-23T09:19:09.982Z,12996.00
2022-10-23T09:20:08.413Z,12940.00
2022-10-23T09:21:06.379Z,12540.00
2022-10-23T09:22:06.380Z,11280.00
2022-10-23T09:23:06.358Z,11884.00
2022-10-23T09:24:06.354Z,13936.00
2022-10-23T09:25:06.340Z,14264.00
2022-10-23T09:26:06.346Z,14376.00
2022-10-23T09:27:06.318Z,13028.00
2022-10-23T09:28:06.302Z,12808.00
2022-10-23T09:29:06.323Z,12484.00
2022-10-23T09:30:06.292Z,12224.00
2022-10-23T09:31:06.277Z,11808.00
2022-10-23T09:32:06.276Z,11048.00
2022-10-23T09:33:06.266Z,10120.00
2022-10-23T09:34:09.641Z,11384.00
2022-10-23T09:35:08.241Z,11336.00
2022-10-23T09:36:06.226Z,12168.00
2022-10-23T09:37:06.234Z,12132.00
2022-10-23T09:38:06.206Z,12240.00
2022-10-23T09:39:06.189Z,11944.00
2022-10-23T09:40:06.189Z,12200.00
2022-10-23T09:41:06.183Z,12104.00
2022-10-23T09:42:06.169Z,11848.00
2022-10-23T09:43:06.952Z,10844.00
2022-10-23T09:44:06.180Z,11100.00
2022-10-23T09:45:06.134Z,11664.00
2022-10-23T09:46:06.133Z,11276.00
2022-10-23T09:47:06.111Z,10664.00
2022-10-23T09:48:06.101Z,9612.00
2022-10-23T09:49:06.115Z,10752.00
2022-10-23T09:50:06.098Z,10720.00
2022-10-23T09:51:06.087Z,10708.00
2022-10-23T09:52:06.069Z,10716.00
2022-10-23T09:53:06.074Z,10436.00
2022-10-23T09:54:06.076Z,10908.00
2022-10-23T09:55:06.051Z,10296.00
2022-10-23T09:56:06.043Z,10512.00
2022-10-23T09:57:06.038Z,10880.00
2022-10-23T09:58:06.009Z,10836.00
2022-10-23T09:59:06.075Z,9700.00
2022-10-23T10:00:05.997Z,10500.00
2022-10-23T10:01:06.108Z,10160.00
2022-10-23T10:02:06.092Z,10296.00
2022-10-23T10:03:05.970Z,10500.00
2022-10-23T10:04:05.993Z,10560.00
2022-10-23T10:05:05.948Z,10292.00
2022-10-23T10:06:05.936Z,9908.00
2022-10-23T10:07:05.925Z,9244.00
2022-10-23T10:08:05.932Z,9032.00
2022-10-23T10:09:05.895Z,9736.00
2022-10-23T10:10:05.931Z,10204.00
2022-10-23T10:11:05.888Z,9936.00
2022-10-23T10:12:05.868Z,9744.00
2022-10-23T10:13:05.853Z,9204.00
2022-10-23T10:14:06.851Z,9064.00
2022-10-23T10:15:05.861Z,8660.00
2022-10-23T10:16:05.852Z,8648.00
2022-10-23T10:17:05.824Z,8780.00
2022-10-23T10:18:05.811Z,8988.00
2022-10-23T10:19:05.842Z,9052.00
2022-10-23T10:20:07.122Z,9308.00
2022-10-23T10:21:05.792Z,9512.00
2022-10-23T10:22:05.779Z,9700.00
2022-10-23T10:23:05.761Z,9904.00
2022-10-23T10:24:05.774Z,9784.00
2022-10-23T10:25:05.757Z,9784.00
2022-10-23T10:26:05.749Z,9752.00
2022-10-23T10:27:05.734Z,9700.00
2022-10-23T10:28:05.736Z,9608.00
2022-10-23T10:29:05.706Z,9536.00
2022-10-23T10:30:05.705Z,9500.00
2022-10-23T10:31:05.674Z,9488.00
2022-10-23T10:32:06.676Z,9596.00
2022-10-23T10:33:05.700Z,9520.00
2022-10-23T10:34:05.655Z,9560.00
2022-10-23T10:35:05.654Z,9596.00
2022-10-23T10:36:05.644Z,9636.00
2022-10-23T10:37:05.624Z,9680.00
2022-10-23T10:38:05.639Z,9680.00
2022-10-23T10:39:05.606Z,9664.00
2022-10-23T10:40:05.593Z,9664.00
2022-10-23T10:41:05.589Z,9696.00
2022-10-23T10:42:05.580Z,9788.00
2022-10-23T10:43:05.588Z,9772.00
2022-10-23T10:44:05.587Z,9776.00
2022-10-23T10:45:05.547Z,9824.00
2022-10-23T10:46:05.573Z,9788.00
2022-10-23T10:47:05.532Z,9744.00
2022-10-23T10:48:05.522Z,9748.00
2022-10-23T10:49:05.536Z,9780.00
2022-10-23T10:50:05.502Z,9820.00
2022-10-23T10:51:05.521Z,9772.00
2022-10-23T10:52:05.489Z,9764.00
2022-10-23T10:53:05.509Z,9792.00
2022-10-23T10:54:05.462Z,10320.00
2022-10-23T10:55:05.456Z,9764.00
2022-10-23T10:56:05.469Z,9544.00
2022-10-23T10:57:05.433Z,9432.00
2022-10-23T10:58:05.452Z,9320.00
2022-10-23T10:59:05.410Z,9216.00
2022-10-23T11:00:05.410Z,9104.00
2022-10-23T11:01:05.580Z,9036.00
2022-10-23T11:02:05.502Z,9000.00
2022-10-23T11:03:05.371Z,9008.00
2022-10-23T11:04:05.370Z,9076.00
2022-10-23T11:05:05.362Z,9116.00
2022-10-23T11:06:05.374Z,9140.00
2022-10-23T11:07:05.357Z,9172.00
2022-10-23T11:08:05.316Z,9156.00
2022-10-23T11:09:19.777Z,9060.00
2022-10-23T11:10:07.301Z,8940.00
2022-10-23T11:11:05.301Z,8880.00
2022-10-23T11:12:05.306Z,8848.00
2022-10-23T11:13:05.277Z,8860.00
2022-10-23T11:14:05.264Z,8868.00
2022-10-23T11:15:05.249Z,8872.00
2022-10-23T11:16:05.251Z,8884.00
2022-10-23T11:17:05.270Z,8960.00
2022-10-23T11:18:05.230Z,8864.00
2022-10-23T11:19:07.525Z,8760.00
2022-10-23T11:20:06.201Z,8864.00
2022-10-23T11:21:05.188Z,9348.00
2022-10-23T11:22:05.184Z,9180.00
2022-10-23T11:23:05.174Z,9168.00
2022-10-23T11:24:05.235Z,9132.00
2022-10-23T11:25:05.138Z,9000.00
2022-10-23T11:26:06.133Z,8956.00
2022-10-23T11:27:05.160Z,8868.00
2022-10-23T11:28:08.576Z,8840.00
2022-10-23T11:29:07.111Z,8748.00
2022-10-23T11:30:05.107Z,8664.00
2022-10-23T11:31:09.429Z,8608.00
2022-10-23T11:32:07.097Z,8572.00
2022-10-23T11:33:05.083Z,8532.00
2022-10-23T11:34:05.107Z,8488.00
2022-10-23T11:35:05.042Z,8380.00
2022-10-23T11:36:05.045Z,8264.00
2022-10-23T11:37:05.033Z,8172.00
2022-10-23T11:38:05.020Z,8052.00
2022-10-23T11:39:05.024Z,7896.00
2022-10-23T11:40:05.005Z,7720.00
2022-10-23T11:41:04.990Z,7516.00
2022-10-23T11:42:04.975Z,7308.00
2022-10-23T11:43:04.986Z,7112.00
2022-10-23T11:44:04.981Z,6948.00
2022-10-23T11:45:04.952Z,6780.00
2022-10-23T11:46:04.944Z,6608.00
2022-10-23T11:47:04.941Z,6440.00
2022-10-23T11:48:04.919Z,6276.00
2022-10-23T11:49:05.038Z,6116.00
2022-10-23T11:50:04.906Z,5992.00
2022-10-23T11:51:05.312Z,5876.00
2022-10-23T11:52:04.876Z,5768.00
2022-10-23T11:53:19.609Z,5688.00
2022-10-23T11:54:06.889Z,5588.00
2022-10-23T11:55:04.854Z,5452.00
2022-10-23T11:56:04.877Z,5268.00
2022-10-23T11:57:07.999Z,5116.00
2022-10-23T11:58:05.843Z,5040.00
2022-10-23T11:59:04.804Z,5028.00
2022-10-23T12:00:04.804Z,5140.00
2022-10-23T12:01:04.865Z,5368.00
2022-10-23T12:02:04.787Z,5608.00
2022-10-23T12:03:04.817Z,5764.00
2022-10-23T12:04:04.754Z,5836.00
2022-10-23T12:05:04.753Z,5896.00
2022-10-23T12:06:04.770Z,5980.00
2022-10-23T12:07:04.748Z,6048.00
2022-10-23T12:08:04.726Z,6072.00
2022-10-23T12:09:04.711Z,6044.00
2022-10-23T12:10:04.703Z,5964.00
2022-10-23T12:11:04.696Z,5844.00
2022-10-23T12:12:04.695Z,5764.00
2022-10-23T12:13:04.675Z,5720.00
2022-10-23T12:14:04.717Z,5692.00
2022-10-23T12:15:04.667Z,5496.00
2022-10-23T12:16:04.678Z,5312.00
2022-10-23T12:17:04.640Z,5316.00
2022-10-23T12:18:04.626Z,5380.00
2022-10-23T12:19:04.606Z,5500.00
2022-10-23T12:20:04.603Z,5636.00
2022-10-23T12:21:04.616Z,5804.00
2022-10-23T12:22:04.601Z,5900.00
2022-10-23T12:23:04.575Z,5932.00
2022-10-23T12:24:05.560Z,5920.00
2022-10-23T12:25:04.554Z,5872.00
2022-10-23T12:26:04.555Z,5812.00
2022-10-23T12:27:04.552Z,5732.00
2022-10-23T12:28:04.557Z,5632.00
2022-10-23T12:29:04.511Z,5468.00
2022-10-23T12:30:04.509Z,5300.00
2022-10-23T12:31:04.493Z,5136.00
2022-10-23T12:32:04.484Z,4980.00
2022-10-23T12:33:04.667Z,4816.00
2022-10-23T12:34:04.462Z,4656.00
2022-10-23T12:35:04.466Z,4552.00
2022-10-23T12:36:04.434Z,4500.00